Time;durP1;ratioP1;P1;durP2;ratioP2;P2;SDS_P1;SDS_P2;PMS_P1;PMS_P2;Temp;Humidity;BMP_temperature;BMP_pressure;BME280_temperature;BME280_humidity;BME280_pressure;Samples;Min_cycle;Max_cycle;Signal;HPM_P1;HPM_P2
2021/01/22 00:01:59;;;;;;;10.93;10.02;;;4.00;69.40;;;;;;5196123;28;20053;-75
2021/01/22 00:04:32;;;;;;;11.18;10.25;;;4.10;69.10;;;;;;5164793;28;20402;-75
2021/01/22 00:07:07;;;;;;;10.70;9.80;;;4.20;69.80;;;;;;5167625;28;20810;-75
2021/01/22 00:09:39;;;;;;;10.20;9.40;;;4.20;68.60;;;;;;5169752;28;20632;-75
2021/01/22 00:12:10;;;;;;;11.15;10.35;;;4.20;68.20;;;;;;5182161;28;20045;-74
2021/01/22 00:14:42;;;;;;;10.88;10.07;;;4.30;68.40;;;;;;5168579;28;20042;-75
2021/01/22 00:17:14;;;;;;;10.90;10.10;;;4.30;67.90;;;;;;5173184;28;20409;-75
2021/01/22 00:19:46;;;;;;;10.82;10.02;;;4.40;68.60;;;;;;5167545;28;20103;-75
2021/01/22 00:22:17;;;;;;;10.93;10.13;;;4.40;68.10;;;;;;5168827;28;20053;-75
2021/01/22 00:24:49;;;;;;;11.25;10.35;;;4.30;68.40;;;;;;5167587;28;20050;-76
2021/01/22 00:27:20;;;;;;;10.80;9.95;;;4.30;69.00;;;;;;5170452;28;20093;-75
2021/01/22 00:29:52;;;;;;;10.88;10.07;;;4.30;69.50;;;;;;5167516;28;20091;-75
2021/01/22 00:32:23;;;;;;;10.73;9.90;;;4.30;69.40;;;;;;5169522;28;20042;-77
2021/01/22 00:34:55;;;;;;;10.60;9.80;;;4.30;69.20;;;;;;5168138;28;20544;-75
2021/01/22 00:37:26;;;;;;;10.95;10.15;;;4.20;69.30;;;;;;5169215;28;20077;-75
2021/01/22 00:39:58;;;;;;;10.60;9.80;;;4.20;68.50;;;;;;5167196;28;20037;-76
2021/01/22 00:42:33;;;;;;;10.65;9.85;;;4.20;69.00;;;;;;5169939;28;20716;-76
2021/01/22 00:45:08;;;;;;;10.93;10.13;;;4.20;68.80;;;;;;5168135;28;20704;-77
2021/01/22 00:47:39;;;;;;;10.80;10.00;;;4.20;69.20;;;;;;5155004;28;20054;-75
2021/01/22 00:50:11;;;;;;;10.35;9.40;;;4.10;69.20;;;;;;5153323;28;20123;-76
2021/01/22 00:52:43;;;;;;;10.90;10.02;;;4.20;69.50;;;;;;5199065;28;20057;-75
2021/01/22 00:55:14;;;;;;;11.43;10.50;;;4.20;69.40;;;;;;5165111;28;20140;-75
2021/01/22 00:57:58;;;;;;;11.00;10.20;;;4.10;69.50;;;;;;5168333;28;20053;-77
2021/01/22 01:00:35;;;;;;;10.75;9.95;;;4.10;69.70;;;;;;5167711;28;20065;-74
2021/01/22 01:03:23;;;;;;;12.00;11.10;;;4.10;69.90;;;;;;5166162;28;20050;-75
2021/01/22 01:05:55;;;;;;;11.55;10.65;;;4.10;69.30;;;;;;5164146;28;20046;-75
2021/01/22 01:08:26;;;;;;;11.55;10.55;;;4.10;69.50;;;;;;5170502;28;20041;-75
2021/01/22 01:11:18;;;;;;;11.00;10.20;;;4.00;70.20;;;;;;5164711;28;20038;-76
2021/01/22 01:14:09;;;;;;;11.05;10.05;;;4.00;70.70;;;;;;5167847;28;20038;-77
2021/01/22 01:16:40;;;;;;;11.18;10.32;;;3.90;71.30;;;;;;5164696;28;20046;-75
2021/01/22 01:19:12;;;;;;;11.48;10.57;;;3.80;71.00;;;;;;5165438;28;20052;-74
2021/01/22 01:21:43;;;;;;;11.45;10.55;;;3.80;71.40;;;;;;5167027;28;20052;-75
2021/01/22 01:24:15;;;;;;;11.70;10.80;;;3.80;71.60;;;;;;5169849;28;20053;-77
2021/01/22 01:26:46;;;;;;;12.18;11.18;;;3.60;70.80;;;;;;5165903;28;20093;-76
2021/01/22 01:29:18;;;;;;;11.70;10.80;;;3.50;71.20;;;;;;5171596;28;20049;-75
2021/01/22 01:31:49;;;;;;;11.60;10.60;;;3.60;71.00;;;;;;5149679;28;20058;-77
2021/01/22 01:34:21;;;;;;;11.55;10.75;;;3.50;71.90;;;;;;5152037;28;20100;-77
2021/01/22 01:36:52;;;;;;;11.80;10.90;;;3.60;72.10;;;;;;5167961;28;20061;-75
2021/01/22 01:39:24;;;;;;;11.90;10.90;;;3.60;71.80;;;;;;5172714;28;20065;-76
2021/01/22 01:41:55;;;;;;;11.90;11.00;;;3.70;71.80;;;;;;5169376;28;20698;-75
2021/01/22 01:44:27;;;;;;;11.15;10.35;;;3.70;71.80;;;;;;5171487;28;20121;-74
2021/01/22 01:46:59;;;;;;;11.00;10.20;;;3.60;72.30;;;;;;5166409;28;20053;-76
2021/01/22 01:49:32;;;;;;;11.63;10.73;;;3.60;72.60;;;;;;5150374;28;20046;-76
2021/01/22 01:52:04;;;;;;;12.07;11.13;;;3.70;72.20;;;;;;5170173;28;20522;-76
2021/01/22 01:54:37;;;;;;;11.55;10.65;;;3.70;72.00;;;;;;5166612;28;20045;-74
2021/01/22 01:57:09;;;;;;;11.60;10.70;;;3.60;71.80;;;;;;5168193;28;20111;-74
2021/01/22 01:59:42;;;;;;;11.52;10.55;;;3.60;71.60;;;;;;5167586;28;20550;-73
2021/01/22 02:02:15;;;;;;;11.70;10.80;;;3.60;71.70;;;;;;5166183;28;20085;-75
2021/01/22 02:04:47;;;;;;;11.02;10.23;;;3.60;71.30;;;;;;5166540;28;20038;-76
2021/01/22 02:07:20;;;;;;;11.27;10.38;;;3.60;71.60;;;;;;5169194;28;20034;-76
2021/01/22 02:09:51;;;;;;;11.48;10.57;;;3.60;71.60;;;;;;5164007;28;20054;-75
2021/01/22 02:12:23;;;;;;;11.55;10.65;;;3.70;71.60;;;;;;5169474;28;20100;-73
2021/01/22 02:14:55;;;;;;;10.75;9.95;;;3.60;72.10;;;;;;5165675;28;20057;-74
2021/01/22 02:17:29;;;;;;;10.68;9.85;;;3.50;71.90;;;;;;5164185;28;20043;-74
2021/01/22 02:20:26;;;;;;;10.90;10.10;;;3.50;72.00;;;;;;5202607;28;20153;-75
2021/01/22 02:22:57;;;;;;;11.10;10.30;;;3.60;71.90;;;;;;5169843;28;20054;-75
2021/01/22 02:25:37;;;;;;;10.88;10.07;;;3.60;71.50;;;;;;5171544;28;20435;-73
2021/01/22 02:28:13;;;;;;;10.45;9.65;;;3.70;70.90;;;;;;5186761;28;20624;-75
2021/01/22 02:30:47;;;;;;;10.52;9.73;;;3.80;70.10;;;;;;5170423;28;20038;-75
2021/01/22 02:33:21;;;;;;;10.50;9.70;;;4.00;69.30;;;;;;5174861;28;20229;-75
2021/01/22 02:35:55;;;;;;;10.73;9.93;;;4.20;68.80;;;;;;5165865;28;20077;-73
2021/01/22 02:38:27;;;;;;;11.00;10.10;;;4.40;68.20;;;;;;5173048;28;20046;-76
2021/01/22 02:40:59;;;;;;;11.02;10.23;;;4.50;67.20;;;;;;5170135;28;20050;-77
2021/01/22 02:43:33;;;;;;;10.77;9.98;;;4.70;66.00;;;;;;5171721;28;20525;-76
2021/01/22 02:46:05;;;;;;;11.32;10.43;;;4.90;65.30;;;;;;5169558;28;20121;-75
2021/01/22 02:48:38;;;;;;;10.77;9.98;;;4.90;65.70;;;;;;5141277;28;20104;-72
2021/01/22 02:51:11;;;;;;;11.07;10.27;;;4.90;66.40;;;;;;5203079;28;20095;-74
2021/01/22 02:53:43;;;;;;;10.85;10.05;;;4.80;66.10;;;;;;5170703;28;20038;-74
2021/01/22 02:56:29;;;;;;;10.93;10.13;;;4.80;66.50;;;;;;5166914;28;20045;-74
2021/01/22 02:59:21;;;;;;;11.00;10.20;;;4.80;66.20;;;;;;5172921;28;20050;-76
2021/01/22 03:02:46;;;;;;;11.18;10.27;;;4.70;66.70;;;;;;5176649;28;20121;-74
2021/01/22 03:05:23;;;;;;;11.10;10.20;;;4.60;66.90;;;;;;5102815;28;20102;-75
2021/01/22 03:08:09;;;;;;;10.93;10.02;;;4.50;68.10;;;;;;5165908;28;20050;-74
2021/01/22 03:10:44;;;;;;;11.10;10.20;;;4.50;68.20;;;;;;5176916;28;20039;-75
2021/01/22 03:13:17;;;;;;;11.75;10.80;;;4.50;67.80;;;;;;5179540;28;20053;-75
2021/01/22 03:15:49;;;;;;;11.40;10.50;;;4.60;67.90;;;;;;5146547;28;20046;-76
2021/01/22 03:18:21;;;;;;;11.57;10.52;;;4.60;68.30;;;;;;5166328;28;20127;-74
2021/01/22 03:20:52;;;;;;;11.80;10.90;;;4.50;68.50;;;;;;5161314;28;20046;-77
2021/01/22 03:23:24;;;;;;;11.50;10.60;;;4.40;69.20;;;;;;5165062;28;20061;-75
2021/01/22 03:25:55;;;;;;;11.00;10.10;;;4.40;69.40;;;;;;5163600;28;20042;-75
2021/01/22 03:28:27;;;;;;;11.20;10.30;;;4.30;69.60;;;;;;5164158;28;20037;-76
2021/01/22 03:30:58;;;;;;;11.18;10.27;;;4.20;69.60;;;;;;5164556;28;20047;-76
2021/01/22 03:33:30;;;;;;;10.90;10.10;;;4.30;69.40;;;;;;5166976;28;20485;-73
2021/01/22 03:36:04;;;;;;;11.13;10.23;;;4.40;69.20;;;;;;5161640;28;20704;-75
2021/01/22 03:38:35;;;;;;;10.90;10.10;;;4.50;69.50;;;;;;5166583;28;20050;-73
2021/01/22 03:41:07;;;;;;;11.52;10.63;;;4.40;69.70;;;;;;5147007;28;21014;-74
2021/01/22 03:43:38;;;;;;;11.32;10.43;;;4.30;69.90;;;;;;5165219;28;20108;-75
2021/01/22 03:46:10;;;;;;;10.85;10.05;;;4.40;69.90;;;;;;5165602;28;20117;-75
2021/01/22 03:48:43;;;;;;;11.85;10.95;;;4.30;70.20;;;;;;5165705;28;20105;-77
2021/01/22 03:51:14;;;;;;;11.25;10.35;;;4.20;70.10;;;;;;5165979;28;20057;-73
2021/01/22 03:53:45;;;;;;;11.30;10.40;;;4.20;70.50;;;;;;5165942;28;20510;-76
2021/01/22 03:56:17;;;;;;;11.48;10.57;;;4.20;70.40;;;;;;5166585;28;20046;-76
2021/01/22 03:58:48;;;;;;;11.40;10.50;;;4.20;69.80;;;;;;5164209;28;20705;-77
2021/01/22 04:01:21;;;;;;;11.45;10.45;;;4.20;70.30;;;;;;5161448;28;20057;-77
2021/01/22 04:03:53;;;;;;;11.65;10.75;;;4.10;70.30;;;;;;5171963;28;20077;-74
2021/01/22 04:06:25;;;;;;;11.25;10.35;;;4.10;70.30;;;;;;5146729;28;20046;-74
2021/01/22 04:08:56;;;;;;;11.30;10.40;;;4.10;70.60;;;;;;5163864;28;20179;-75
2021/01/22 04:11:27;;;;;;;11.20;10.30;;;4.10;70.70;;;;;;5166198;28;20123;-73
2021/01/22 04:13:59;;;;;;;10.95;10.05;;;4.10;70.80;;;;;;5164035;28;20065;-76
2021/01/22 04:16:31;;;;;;;11.63;10.63;;;4.10;71.20;;;;;;5164820;28;20119;-75
2021/01/22 04:19:02;;;;;;;11.00;10.10;;;4.00;71.10;;;;;;5161787;28;20042;-77
2021/01/22 04:21:34;;;;;;;11.73;10.82;;;4.00;70.00;;;;;;5159238;28;20053;-76
2021/01/22 04:24:06;;;;;;;11.32;10.43;;;4.00;70.10;;;;;;5171184;28;20132;-76
2021/01/22 04:26:38;;;;;;;11.00;10.10;;;4.00;70.40;;;;;;5165072;28;20038;-75
2021/01/22 04:29:09;;;;;;;11.63;10.70;;;4.00;70.10;;;;;;5163488;28;20132;-77
2021/01/22 04:32:37;;;;;;;11.07;10.20;;;4.00;70.10;;;;;;5164418;28;20053;-77
2021/01/22 04:35:23;;;;;;;11.05;10.20;;;4.10;70.30;;;;;;5135645;28;20043;-73
2021/01/22 04:37:54;;;;;;;10.73;9.93;;;4.00;70.30;;;;;;5162502;28;20469;-74
2021/01/22 04:40:26;;;;;;;10.88;10.07;;;3.90;70.50;;;;;;5164459;28;20453;-74
2021/01/22 04:42:57;;;;;;;11.75;10.85;;;3.90;70.60;;;;;;5162576;28;20050;-74
2021/01/22 04:45:29;;;;;;;11.85;10.95;;;3.90;70.40;;;;;;5163617;28;20127;-74
2021/01/22 04:48:02;;;;;;;11.95;10.90;;;3.90;70.50;;;;;;5164163;28;20050;-76
2021/01/22 04:50:38;;;;;;;11.52;10.63;;;3.90;70.60;;;;;;5160979;28;20180;-75
2021/01/22 04:53:10;;;;;;;11.15;10.25;;;3.90;71.00;;;;;;5164021;28;20041;-74
2021/01/22 04:55:47;;;;;;;11.50;10.45;;;3.90;71.00;;;;;;5162263;28;20077;-74
2021/01/22 04:58:19;;;;;;;11.40;10.50;;;3.90;71.60;;;;;;5166031;28;20034;-77
2021/01/22 05:00:52;;;;;;;11.70;10.80;;;3.80;71.30;;;;;;5162581;28;20096;-76
2021/01/22 05:03:26;;;;;;;12.10;11.20;;;3.80;71.20;;;;;;5166066;28;20571;-74
2021/01/22 05:05:58;;;;;;;11.50;10.60;;;3.80;71.60;;;;;;5162876;28;20442;-75
2021/01/22 05:08:30;;;;;;;11.90;11.00;;;3.80;72.00;;;;;;5164834;28;20084;-74
2021/01/22 05:11:01;;;;;;;12.13;11.23;;;3.70;72.40;;;;;;5161328;28;20061;-76
2021/01/22 05:13:36;;;;;;;11.45;10.55;;;3.60;72.60;;;;;;5166995;28;20108;-75
2021/01/22 05:16:17;;;;;;;11.70;10.80;;;3.50;73.10;;;;;;5160377;28;20046;-74
2021/01/22 05:18:49;;;;;;;12.15;11.15;;;3.50;73.20;;;;;;5147805;28;20575;-75
2021/01/22 05:21:20;;;;;;;11.55;10.65;;;3.40;73.20;;;;;;5144559;28;20050;-77
2021/01/22 05:23:52;;;;;;;12.10;11.10;;;3.40;72.90;;;;;;5166460;28;20046;-74
2021/01/22 05:26:24;;;;;;;12.30;11.40;;;3.40;73.10;;;;;;5171996;28;20577;-72
2021/01/22 05:28:59;;;;;;;12.52;11.52;;;3.40;73.20;;;;;;5161666;28;20437;-75
2021/01/22 05:31:30;;;;;;;12.38;11.38;;;3.40;73.20;;;;;;5158019;28;20077;-74
2021/01/22 05:34:02;;;;;;;11.90;11.00;;;3.40;73.00;;;;;;5164407;28;20100;-75
2021/01/22 05:36:35;;;;;;;11.38;10.48;;;3.40;72.90;;;;;;5160054;28;20046;-76
2021/01/22 05:39:17;;;;;;;11.80;10.90;;;3.50;72.60;;;;;;5166834;28;20490;-73
2021/01/22 05:41:53;;;;;;;11.57;10.68;;;3.50;72.80;;;;;;5163644;28;20607;-74
2021/01/22 05:44:25;;;;;;;12.00;11.00;;;3.50;72.90;;;;;;5157964;28;20050;-73
2021/01/22 05:47:09;;;;;;;11.70;10.80;;;3.40;73.30;;;;;;5166593;28;20086;-73
2021/01/22 05:49:54;;;;;;;11.45;10.55;;;3.40;73.30;;;;;;5159229;28;20050;-74
2021/01/22 05:52:25;;;;;;;11.60;10.57;;;3.40;74.10;;;;;;5171049;28;20069;-72
2021/01/22 05:54:57;;;;;;;11.23;10.32;;;3.40;73.50;;;;;;5163658;28;20053;-73
2021/01/22 05:57:37;;;;;;;11.90;10.80;;;3.30;73.60;;;;;;5163007;28;20449;-72
2021/01/22 06:00:14;;;;;;;11.02;10.20;;;3.40;73.50;;;;;;5178780;28;20582;-73
2021/01/22 06:02:45;;;;;;;11.00;10.20;;;3.30;73.70;;;;;;5166879;28;20049;-71
2021/01/22 06:05:18;;;;;;;11.30;10.40;;;3.40;73.70;;;;;;5167359;28;20054;-74
2021/01/22 06:08:07;;;;;;;10.68;9.88;;;3.40;74.10;;;;;;5173450;28;20154;-73
2021/01/22 06:10:39;;;;;;;11.65;10.68;;;3.40;73.80;;;;;;5172694;28;20099;-70
2021/01/22 06:13:15;;;;;;;10.75;9.95;;;3.30;73.90;;;;;;5174299;28;20049;-72
2021/01/22 06:15:47;;;;;;;10.40;9.60;;;3.30;73.70;;;;;;5158308;28;20046;-73
2021/01/22 06:18:27;;;;;;;10.73;9.93;;;3.30;73.60;;;;;;5192346;28;20961;-72
2021/01/22 06:21:13;;;;;;;10.90;10.10;;;3.30;73.30;;;;;;5175901;28;20554;-71
2021/01/22 06:23:47;;;;;;;11.10;10.27;;;3.40;73.40;;;;;;5170134;28;20038;-70
2021/01/22 06:26:20;;;;;;;11.00;10.20;;;3.40;73.40;;;;;;5175841;28;20050;-75
2021/01/22 06:28:52;;;;;;;10.82;10.02;;;3.40;73.20;;;;;;5169166;28;20050;-72
2021/01/22 06:31:24;;;;;;;10.75;9.95;;;3.30;73.90;;;;;;5179347;28;20042;-73
2021/01/22 06:33:57;;;;;;;11.38;10.48;;;3.30;74.30;;;;;;5202646;28;20054;-71
2021/01/22 06:36:28;;;;;;;11.23;10.32;;;3.20;74.30;;;;;;5155427;28;20049;-74
2021/01/22 06:39:02;;;;;;;10.93;10.13;;;3.20;74.20;;;;;;5171583;28;21522;-71
2021/01/22 06:41:36;;;;;;;11.25;10.35;;;3.30;74.00;;;;;;5170589;28;20101;-71
2021/01/22 06:44:09;;;;;;;11.63;10.73;;;3.40;74.00;;;;;;5176329;28;20058;-72
2021/01/22 06:46:40;;;;;;;12.05;11.15;;;3.40;73.90;;;;;;5170970;28;20041;-75
2021/01/22 06:49:12;;;;;;;11.80;10.90;;;3.50;73.40;;;;;;5158750;28;20049;-70
2021/01/22 06:51:43;;;;;;;11.95;11.00;;;3.50;73.10;;;;;;5170610;28;20054;-72
2021/01/22 06:54:20;;;;;;;11.98;11.07;;;3.60;73.30;;;;;;5172752;28;20061;-76
2021/01/22 06:57:09;;;;;;;11.55;10.65;;;3.60;73.30;;;;;;5163005;28;20053;-75
2021/01/22 06:59:41;;;;;;;11.63;10.73;;;3.60;73.00;;;;;;5166887;28;20090;-74
2021/01/22 07:02:42;;;;;;;11.57;10.68;;;3.60;72.80;;;;;;5165483;28;20061;-75
2021/01/22 07:05:28;;;;;;;11.40;10.40;;;3.60;72.90;;;;;;5155146;28;20058;-77
2021/01/22 07:08:00;;;;;;;11.20;10.30;;;3.50;72.90;;;;;;5166329;28;20280;-73
2021/01/22 07:10:57;;;;;;;11.63;10.73;;;3.40;73.10;;;;;;5163639;28;20045;-74
2021/01/22 07:13:36;;;;;;;11.80;10.90;;;3.40;73.30;;;;;;5166146;28;20041;-77
2021/01/22 07:16:11;;;;;;;11.10;10.20;;;3.30;73.40;;;;;;5162487;28;20042;-74
2021/01/22 07:18:50;;;;;;;11.57;10.57;;;3.30;73.30;;;;;;5165152;28;20061;-74
2021/01/22 07:21:43;;;;;;;10.00;9.20;;;3.30;73.50;;;;;;5163904;28;20054;-75
2021/01/22 07:24:18;;;;;;;10.63;9.75;;;3.30;73.70;;;;;;5163762;28;20065;-74
2021/01/22 07:26:53;;;;;;;10.63;9.82;;;3.30;73.70;;;;;;5161892;28;20051;-76
2021/01/22 07:29:30;;;;;;;11.18;10.27;;;3.30;73.40;;;;;;5164169;28;20046;-73
2021/01/22 07:32:06;;;;;;;11.20;10.30;;;3.40;73.20;;;;;;5163790;28;20042;-77
2021/01/22 07:34:43;;;;;;;11.38;10.48;;;3.40;73.10;;;;;;5163695;28;20057;-73
2021/01/22 07:37:23;;;;;;;10.90;10.05;;;3.40;72.90;;;;;;5159544;28;20050;-77
2021/01/22 07:39:55;;;;;;;11.07;10.07;;;3.40;73.10;;;;;;5166239;28;20049;-74
2021/01/22 07:42:27;;;;;;;10.40;9.60;;;3.40;73.10;;;;;;5173466;28;20081;-73
2021/01/22 07:45:09;;;;;;;11.88;10.88;;;3.50;72.80;;;;;;5172574;28;20523;-76
2021/01/22 07:47:42;;;;;;;11.65;10.75;;;3.50;72.60;;;;;;5161948;28;20054;-72
2021/01/22 07:50:16;;;;;;;12.35;11.25;;;3.60;72.00;;;;;;5166297;28;20038;-74
2021/01/22 07:52:49;;;;;;;11.60;10.70;;;3.60;72.20;;;;;;5164239;28;20042;-76
2021/01/22 07:55:25;;;;;;;11.18;10.18;;;3.60;72.30;;;;;;5158535;28;20046;-75
2021/01/22 07:58:04;;;;;;;10.93;10.13;;;3.70;72.40;;;;;;5163171;28;20524;-77
2021/01/22 08:00:40;;;;;;;13.30;12.07;;;3.80;72.20;;;;;;5163850;28;20315;-74
2021/01/22 08:03:13;;;;;;;14.52;12.88;;;3.80;71.50;;;;;;5161211;28;20176;-75
2021/01/22 08:05:45;;;;;;;13.23;12.07;;;3.80;71.00;;;;;;5163495;28;20053;-74
2021/01/22 08:08:19;;;;;;;12.80;11.70;;;3.80;71.60;;;;;;5161949;28;20030;-73
2021/01/22 08:10:50;;;;;;;11.35;10.45;;;3.60;70.50;;;;;;5163260;28;20069;-74
2021/01/22 08:13:22;;;;;;;10.85;9.95;;;3.40;71.20;;;;;;5162187;28;20413;-75
2021/01/22 08:16:03;;;;;;;11.60;10.70;;;3.30;71.70;;;;;;5159143;28;20038;-75
2021/01/22 08:18:35;;;;;;;12.18;11.18;;;3.30;72.00;;;;;;5159620;28;20065;-76
2021/01/22 08:21:08;;;;;;;12.30;11.30;;;3.40;72.00;;;;;;5159836;28;20054;-75
2021/01/22 08:23:43;;;;;;;12.15;11.15;;;3.40;71.70;;;;;;5172122;28;20034;-75
2021/01/22 08:26:15;;;;;;;11.20;10.30;;;3.50;71.70;;;;;;5159969;28;20087;-73
2021/01/22 08:28:51;;;;;;;11.52;10.60;;;3.60;71.60;;;;;;5167792;28;20053;-75
2021/01/22 08:31:24;;;;;;;11.73;10.73;;;3.70;72.00;;;;;;5159804;28;20461;-75
2021/01/22 08:33:59;;;;;;;11.00;10.10;;;3.80;71.50;;;;;;5162046;28;20054;-74
2021/01/22 08:36:31;;;;;;;11.10;10.30;;;3.90;71.60;;;;;;5158282;28;20457;-75
2021/01/22 08:39:03;;;;;;;11.65;10.75;;;4.00;71.50;;;;;;5158055;28;20409;-78
2021/01/22 08:41:35;;;;;;;10.90;10.10;;;4.10;70.60;;;;;;5146047;28;20057;-80
2021/01/22 08:44:07;;;;;;;12.07;11.18;;;4.20;70.90;;;;;;5166469;28;20053;-78
2021/01/22 08:46:50;;;;;;;11.80;10.90;;;4.30;70.90;;;;;;5166949;28;20045;-77
2021/01/22 08:49:22;;;;;;;11.52;10.52;;;4.30;70.50;;;;;;5161364;28;20042;-78
2021/01/22 08:51:53;;;;;;;11.63;10.73;;;4.40;70.80;;;;;;5165230;28;20485;-77
2021/01/22 08:54:37;;;;;;;11.90;10.90;;;4.50;69.60;;;;;;5160336;28;20050;-78
2021/01/22 08:57:09;;;;;;;13.15;11.75;;;4.40;67.90;;;;;;5167653;28;20045;-76
2021/01/22 08:59:57;;;;;;;13.70;12.60;;;4.20;68.00;;;;;;5171408;28;20046;-76
2021/01/22 09:02:35;;;;;;;13.73;12.55;;;4.10;68.80;;;;;;5162534;28;20066;-77
2021/01/22 09:05:10;;;;;;;13.63;12.38;;;4.10;69.10;;;;;;5161349;28;20090;-77
2021/01/22 09:07:43;;;;;;;12.05;11.10;;;4.10;69.30;;;;;;5161534;28;20038;-79
2021/01/22 09:10:23;;;;;;;12.10;11.10;;;4.20;69.60;;;;;;5168613;28;20639;-80
2021/01/22 09:13:08;;;;;;;11.90;11.00;;;4.40;69.00;;;;;;5158349;28;20050;-78
2021/01/22 09:15:40;;;;;;;12.07;11.10;;;4.50;68.60;;;;;;5159061;28;20066;-81
2021/01/22 09:18:18;;;;;;;13.15;12.07;;;4.50;68.20;;;;;;5151653;28;20053;-78
2021/01/22 09:21:16;;;;;;;12.10;11.13;;;4.60;67.30;;;;;;5164913;28;20046;-76
2021/01/22 09:23:48;;;;;;;12.77;11.77;;;4.60;68.40;;;;;;5160448;28;20053;-81
2021/01/22 09:26:19;;;;;;;13.50;12.30;;;4.70;68.00;;;;;;5161449;28;20042;-84
2021/01/22 09:28:50;;;;;;;13.23;12.13;;;4.70;67.00;;;;;;5163862;28;20046;-79
2021/01/22 09:31:22;;;;;;;12.30;11.27;;;4.70;67.30;;;;;;5166242;28;20705;-79
2021/01/22 09:33:54;;;;;;;12.82;11.63;;;4.80;67.20;;;;;;5163436;28;20046;-76
2021/01/22 09:36:25;;;;;;;12.80;11.80;;;4.90;67.50;;;;;;5166806;28;20124;-78
2021/01/22 09:38:56;;;;;;;13.05;12.05;;;5.10;67.50;;;;;;5157121;28;20050;-79
2021/01/22 09:41:28;;;;;;;12.80;11.80;;;5.40;67.20;;;;;;5143845;28;20096;-78
2021/01/22 09:43:59;;;;;;;11.60;10.63;;;5.50;66.80;;;;;;5169420;28;20051;-77
2021/01/22 09:46:34;;;;;;;13.60;12.43;;;5.70;67.30;;;;;;5157899;28;20053;-79
2021/01/22 09:49:05;;;;;;;12.50;11.50;;;5.80;63.90;;;;;;5157882;28;20717;-77
2021/01/22 09:51:37;;;;;;;13.13;11.93;;;5.70;65.50;;;;;;5164751;28;20109;-78
2021/01/22 09:54:09;;;;;;;12.48;11.45;;;5.90;64.00;;;;;;5158472;28;20046;-76
2021/01/22 09:56:41;;;;;;;12.55;11.57;;;5.90;63.90;;;;;;5164940;28;20046;-77
2021/01/22 09:59:12;;;;;;;12.65;11.55;;;5.90;64.30;;;;;;5161924;28;20043;-79
2021/01/22 10:01:44;;;;;;;12.93;11.93;;;6.10;64.60;;;;;;5164471;28;20070;-76
2021/01/22 10:04:15;;;;;;;13.02;12.02;;;6.30;65.10;;;;;;5160292;28;20057;-82
2021/01/22 10:06:48;;;;;;;13.48;12.48;;;6.50;64.90;;;;;;5158139;28;20066;-77
2021/01/22 10:09:20;;;;;;;13.15;12.05;;;6.60;65.10;;;;;;5162029;28;20049;-81
2021/01/22 10:11:51;;;;;;;12.80;11.80;;;6.80;64.40;;;;;;5162448;28;20470;-77
2021/01/22 10:14:23;;;;;;;12.85;11.95;;;6.90;62.90;;;;;;5162626;28;20045;-80
2021/01/22 10:16:54;;;;;;;12.50;11.60;;;6.80;63.20;;;;;;5161834;28;20039;-81
2021/01/22 10:19:26;;;;;;;12.60;11.70;;;6.90;62.60;;;;;;5151670;28;20541;-77
2021/01/22 10:21:57;;;;;;;12.63;11.73;;;6.90;63.30;;;;;;5164524;28;20038;-79
2021/01/22 10:24:29;;;;;;;12.27;11.38;;;6.90;62.00;;;;;;5148126;28;20617;-77
2021/01/22 10:27:01;;;;;;;12.32;11.35;;;6.80;62.50;;;;;;5155972;28;20050;-78
2021/01/22 10:29:33;;;;;;;12.32;11.43;;;6.90;62.10;;;;;;5162448;28;20110;-79
2021/01/22 10:32:04;;;;;;;11.77;10.98;;;6.90;62.10;;;;;;5161503;28;20047;-75
2021/01/22 10:34:36;;;;;;;11.70;10.80;;;6.90;61.70;;;;;;5148166;28;20100;-79
2021/01/22 10:37:07;;;;;;;12.48;11.57;;;7.00;61.80;;;;;;5164910;28;20076;-77
2021/01/22 10:39:39;;;;;;;12.23;11.30;;;7.10;61.60;;;;;;5167936;28;20041;-79
2021/01/22 10:42:10;;;;;;;12.32;11.43;;;7.30;61.40;;;;;;5171535;28;20057;-80
2021/01/22 10:44:42;;;;;;;12.73;11.82;;;7.40;61.10;;;;;;5170696;28;20039;-76
2021/01/22 10:47:14;;;;;;;12.50;11.60;;;7.50;61.30;;;;;;5165977;28;20524;-82
2021/01/22 10:49:59;;;;;;;12.27;11.32;;;7.60;60.90;;;;;;5167554;28;20039;-80
2021/01/22 10:52:34;;;;;;;13.23;12.32;;;7.60;61.00;;;;;;5169361;28;20095;-77
2021/01/22 10:55:06;;;;;;;13.77;12.73;;;7.70;61.00;;;;;;5168405;28;20057;-77
2021/01/22 10:57:38;;;;;;;13.13;12.07;;;7.80;59.40;;;;;;5154597;28;20038;-76
2021/01/22 11:00:10;;;;;;;11.70;10.90;;;7.70;60.20;;;;;;5155507;28;20462;-81
2021/01/22 11:02:42;;;;;;;12.15;11.15;;;7.60;59.40;;;;;;5174431;28;20740;-77
2021/01/22 11:05:14;;;;;;;12.65;11.75;;;7.40;60.10;;;;;;5172698;28;20532;-76
2021/01/22 11:07:45;;;;;;;12.75;11.85;;;7.30;61.10;;;;;;5165696;28;20054;-77
2021/01/22 11:10:17;;;;;;;13.45;12.55;;;7.40;61.30;;;;;;5165492;28;20057;-76
2021/01/22 11:12:49;;;;;;;12.90;12.00;;;7.50;60.30;;;;;;5172119;28;20045;-78
2021/01/22 11:15:20;;;;;;;12.88;11.98;;;7.60;60.30;;;;;;5171039;28;20509;-75
2021/01/22 11:17:52;;;;;;;12.90;11.75;;;7.70;60.20;;;;;;5151112;28;20049;-76
2021/01/22 11:20:24;;;;;;;12.75;11.85;;;7.70;59.70;;;;;;5170223;28;20053;-79
2021/01/22 11:22:55;;;;;;;11.63;10.82;;;7.80;59.80;;;;;;5163968;28;20042;-79
2021/01/22 11:25:27;;;;;;;12.93;11.93;;;7.90;60.70;;;;;;5169642;28;20041;-80
2021/01/22 11:27:58;;;;;;;13.93;12.85;;;8.00;59.10;;;;;;5165503;28;20517;-77
2021/01/22 11:30:30;;;;;;;13.38;12.43;;;8.00;59.80;;;;;;5159126;28;20054;-77
2021/01/22 11:33:01;;;;;;;13.68;12.68;;;8.10;59.40;;;;;;5167001;28;20458;-77
2021/01/22 11:35:35;;;;;;;13.30;12.30;;;8.10;59.40;;;;;;5169980;28;20121;-76
2021/01/22 11:38:06;;;;;;;12.70;11.73;;;8.00;59.80;;;;;;5167237;28;20042;-76
2021/01/22 11:40:38;;;;;;;13.65;12.63;;;8.00;59.50;;;;;;5168504;28;20038;-75
2021/01/22 11:43:09;;;;;;;13.52;12.52;;;8.10;59.60;;;;;;5165133;28;20050;-75
2021/01/22 11:45:41;;;;;;;13.52;12.52;;;8.20;58.90;;;;;;5163954;28;20053;-77
2021/01/22 11:48:12;;;;;;;13.18;12.20;;;8.20;58.50;;;;;;5168609;28;20508;-76
2021/01/22 11:50:44;;;;;;;13.40;12.50;;;8.20;58.30;;;;;;5170690;28;20077;-76
2021/01/22 11:53:16;;;;;;;13.63;12.63;;;8.30;57.30;;;;;;5168568;28;20453;-77
2021/01/22 11:55:47;;;;;;;12.82;11.93;;;8.40;54.60;;;;;;5165232;28;20464;-77
2021/01/22 11:58:19;;;;;;;13.07;12.10;;;8.50;56.50;;;;;;5164318;28;20053;-78
2021/01/22 12:00:50;;;;;;;13.90;12.80;;;8.60;57.10;;;;;;5164465;28;20674;-77
2021/01/22 12:03:23;;;;;;;14.30;13.30;;;8.50;56.10;;;;;;5165483;28;20043;-76
2021/01/22 12:05:55;;;;;;;13.68;12.63;;;8.40;56.00;;;;;;5171662;28;20052;-76
2021/01/22 12:08:27;;;;;;;12.65;11.70;;;8.50;56.80;;;;;;5168409;28;20045;-77
2021/01/22 12:10:59;;;;;;;13.48;12.57;;;8.50;55.50;;;;;;5159533;28;20569;-76
2021/01/22 12:13:30;;;;;;;13.55;12.50;;;8.50;55.80;;;;;;5167495;28;20049;-76
2021/01/22 12:16:02;;;;;;;13.60;12.60;;;8.20;56.90;;;;;;5136889;28;20079;-77
2021/01/22 12:18:34;;;;;;;13.32;12.32;;;8.00;56.60;;;;;;5164965;28;20042;-77
2021/01/22 12:21:09;;;;;;;13.63;12.63;;;8.00;57.10;;;;;;5163445;28;20045;-75
2021/01/22 12:23:43;;;;;;;13.43;12.43;;;8.00;57.40;;;;;;5165863;28;20052;-77
2021/01/22 12:26:14;;;;;;;13.00;12.10;;;7.90;57.30;;;;;;5163162;28;20045;-75
2021/01/22 12:28:47;;;;;;;13.23;12.32;;;7.90;56.40;;;;;;5166217;28;20116;-75
2021/01/22 12:31:18;;;;;;;12.93;12.02;;;7.90;57.10;;;;;;5150266;28;20120;-76
2021/01/22 12:33:50;;;;;;;13.60;12.68;;;7.80;57.30;;;;;;5164008;28;20052;-75
2021/01/22 12:36:21;;;;;;;12.85;11.95;;;7.90;56.70;;;;;;5144682;28;20070;-75
2021/01/22 12:38:53;;;;;;;12.73;11.82;;;7.90;56.30;;;;;;5164087;28;20457;-76
2021/01/22 12:41:24;;;;;;;12.65;11.73;;;8.00;56.70;;;;;;5164139;28;20037;-76
2021/01/22 12:43:56;;;;;;;12.75;11.75;;;7.90;55.90;;;;;;5166521;28;20104;-75
2021/01/22 12:46:27;;;;;;;12.75;11.85;;;7.80;56.20;;;;;;5159127;28;20046;-75
2021/01/22 12:48:59;;;;;;;12.85;11.95;;;7.70;56.10;;;;;;5169633;28;20522;-79
2021/01/22 12:51:31;;;;;;;12.10;11.20;;;7.70;56.10;;;;;;5166827;28;20464;-73
2021/01/22 12:54:03;;;;;;;12.10;11.20;;;7.70;56.60;;;;;;5168467;28;20042;-78
2021/01/22 12:56:34;;;;;;;12.98;11.98;;;7.70;56.90;;;;;;5165290;28;20095;-76
2021/01/22 12:59:06;;;;;;;12.48;11.57;;;7.70;55.70;;;;;;5165947;28;20046;-75
2021/01/22 13:01:39;;;;;;;12.68;11.77;;;7.70;56.00;;;;;;5159751;28;20042;-76
2021/01/22 13:04:10;;;;;;;11.85;11.05;;;7.70;56.20;;;;;;5160696;28;20042;-74
2021/01/22 13:06:43;;;;;;;12.40;11.50;;;7.80;55.90;;;;;;5164784;28;20038;-75
2021/01/22 13:09:14;;;;;;;12.07;11.25;;;7.60;55.70;;;;;;5167685;28;20037;-73
2021/01/22 13:11:46;;;;;;;11.82;10.95;;;7.50;56.60;;;;;;5169020;28;20039;-77
2021/01/22 13:14:17;;;;;;;12.05;11.15;;;7.60;57.10;;;;;;5165257;28;20061;-74